Terminal Aerodrome Forecast
Issued by NWS Mt. Holly, NJ

Home | Current Version | Previous Version | Text Only | Print | Product List | Glossary On
Versions: 1 2 3 4 5 6 7 8 9 10 11 12 13 14 15 16 17 18 19 20
000
FTUS41 KPHI 302330
TAFACY
TAF
KACY 302330Z 0100/0124 12008KT P6SM SCT045
     FM010700 11005KT P6SM -RA OVC035
     FM011000 12008KT 5SM -RA SCT009 OVC025
     FM011600 13008KT 2SM RA BR OVC009
     FM011900 13007KT 1SM RA BR OVC005=

USA.gov is the U.S. government's official web portal to all federal, state and local government web resources and services.